Weeksbury, Kentucky
Current Conditions -  °F | °C
As of 11:15 AM on Saturday 25 Oct 2014 (Local Time) from KPBX Reporting Station
Clear Clear  
Wind Chill: 52°   Ceiling: Unl
Heat Index: 52°   Visibility: 10mi
Dew Point: 45°   Wind: 3mph
Humidity: 77%   Direction: 170°S
Pressure: 30.07"   Gusts: NA
Location:  37.33°N, 82.69°W
Report Text: KPBX 251515Z AUTO 17003KT 10SM CLR 11/07 A3007 RMK AO2 T01100071
Loading
Personal Weather Stations






























Interactive Weather Map
Tropical Storm Tracking
New forecast layout! Learn more

10-Day Weather Forecast

Advertisements
Track Severe Weather on mobile